createdAt,value
2019-03-25T00:00:29.812Z,54.80
2019-03-25T00:01:02.907Z,54.76
2019-03-25T00:01:36.007Z,55.16
2019-03-25T00:02:07.208Z,55.52
2019-03-25T00:02:38.377Z,56.01
2019-03-25T00:03:09.592Z,56.47
2019-03-25T00:03:40.846Z,56.81
2019-03-25T00:04:12.074Z,57.17
2019-03-25T00:04:43.305Z,57.54
2019-03-25T00:05:14.520Z,57.92
2019-03-25T00:05:45.740Z,58.29
2019-03-25T00:06:17.060Z,58.56
2019-03-25T00:06:48.282Z,58.88
2019-03-25T00:07:19.525Z,59.25
2019-03-25T00:07:50.724Z,59.68
2019-03-25T00:08:21.876Z,59.95
2019-03-25T00:09:04.527Z,60.31
2019-03-25T00:09:26.154Z,60.62
2019-03-25T00:09:57.406Z,60.91
2019-03-25T00:10:28.557Z,61.30
2019-03-25T00:10:59.797Z,61.55
2019-03-25T00:11:30.959Z,61.86
2019-03-25T00:12:02.246Z,62.16
2019-03-25T00:12:33.427Z,62.57
2019-03-25T00:13:04.688Z,63.45
2019-03-25T00:13:35.845Z,64.08
2019-03-25T00:14:07.060Z,64.22
2019-03-25T00:14:38.224Z,63.66
2019-03-25T00:15:09.445Z,62.86
2019-03-25T00:15:40.589Z,61.91
2019-03-25T00:16:11.812Z,60.89
2019-03-25T00:16:43.056Z,59.73
2019-03-25T00:17:14.279Z,58.72
2019-03-25T00:17:45.538Z,57.25
2019-03-25T00:18:16.736Z,55.86
2019-03-25T00:18:47.901Z,55.07
2019-03-25T00:19:19.135Z,54.78
2019-03-25T00:19:50.279Z,54.60
2019-03-25T00:20:21.520Z,54.71
2019-03-25T00:20:52.681Z,54.95
2019-03-25T00:21:23.882Z,55.27
2019-03-25T00:21:55.067Z,55.66
2019-03-25T00:22:26.253Z,56.01
2019-03-25T00:22:57.431Z,56.46
2019-03-25T00:23:28.693Z,56.84
2019-03-25T00:23:59.923Z,57.27
2019-03-25T00:24:38.685Z,57.70
2019-03-25T00:25:04.865Z,58.01
2019-03-25T00:25:36.097Z,58.46
2019-03-25T00:26:07.326Z,58.88
2019-03-25T00:26:38.538Z,59.19
2019-03-25T00:27:09.846Z,59.47
2019-03-25T00:27:41.067Z,59.95
2019-03-25T00:28:13.809Z,60.29
2019-03-25T00:28:45.134Z,60.61
2019-03-25T00:29:16.313Z,61.04
2019-03-25T00:29:47.483Z,61.40
2019-03-25T00:30:18.710Z,61.73
2019-03-25T00:30:50.018Z,61.94
2019-03-25T00:31:21.220Z,62.69
2019-03-25T00:31:52.367Z,63.61
2019-03-25T00:32:23.662Z,64.14
2019-03-25T00:32:54.842Z,64.04
2019-03-25T00:33:26.046Z,63.53
2019-03-25T00:33:57.190Z,62.68
2019-03-25T00:34:28.380Z,61.73
2019-03-25T00:34:59.550Z,60.75
2019-03-25T00:35:31.764Z,59.81
2019-03-25T00:36:02.951Z,58.70
2019-03-25T00:36:34.155Z,57.06
2019-03-25T00:37:05.295Z,55.74
2019-03-25T00:37:36.518Z,54.97
2019-03-25T00:38:07.708Z,54.57
2019-03-25T00:38:38.891Z,54.43
2019-03-25T00:39:10.081Z,54.53
2019-03-25T00:39:41.290Z,54.83
2019-03-25T00:40:12.455Z,55.10
2019-03-25T00:40:43.646Z,55.46
2019-03-25T00:41:14.849Z,55.82
2019-03-25T00:41:46.047Z,56.13
2019-03-25T00:42:17.203Z,56.54
2019-03-25T00:42:48.403Z,57.09
2019-03-25T00:43:19.592Z,57.43
2019-03-25T00:43:50.813Z,57.81
2019-03-25T00:44:21.996Z,58.17
2019-03-25T00:44:53.177Z,58.64
2019-03-25T00:45:24.366Z,58.95
2019-03-25T00:45:55.540Z,59.27
2019-03-25T00:46:26.724Z,59.63
2019-03-25T00:46:57.907Z,60.00
2019-03-25T00:47:29.088Z,60.34
2019-03-25T00:48:00.245Z,60.68
2019-03-25T00:48:31.438Z,61.03
2019-03-25T00:49:02.613Z,61.34
2019-03-25T00:49:33.806Z,61.86
2019-03-25T00:50:06.023Z,62.78
2019-03-25T00:50:37.260Z,63.49
2019-03-25T00:51:08.446Z,63.58
2019-03-25T00:51:39.619Z,63.23
2019-03-25T00:52:10.816Z,62.49
2019-03-25T00:52:42.020Z,61.66
2019-03-25T00:53:13.235Z,60.66
2019-03-25T00:53:44.433Z,59.56
2019-03-25T00:54:15.600Z,58.26
2019-03-25T00:54:50.163Z,56.82
2019-03-25T00:55:19.857Z,55.85
2019-03-25T00:55:51.091Z,55.34
2019-03-25T00:56:22.264Z,55.21
2019-03-25T00:56:54.486Z,55.26
2019-03-25T00:57:25.772Z,55.40
2019-03-25T00:57:56.942Z,55.75
2019-03-25T00:58:28.136Z,56.12
2019-03-25T00:58:59.308Z,56.48
2019-03-25T00:59:30.509Z,56.86
2019-03-25T01:00:02.873Z,57.26
2019-03-25T01:00:35.273Z,57.74
2019-03-25T01:01:06.472Z,58.14
2019-03-25T01:01:37.736Z,58.55
2019-03-25T01:02:08.897Z,58.93
2019-03-25T01:02:40.113Z,59.34
2019-03-25T01:03:11.281Z,59.65
2019-03-25T01:03:42.483Z,60.00
2019-03-25T01:04:13.636Z,60.39
2019-03-25T01:04:44.830Z,60.66
2019-03-25T01:05:16.000Z,61.07
2019-03-25T01:05:47.239Z,61.39
2019-03-25T01:06:18.501Z,61.97
2019-03-25T01:06:49.698Z,62.86
2019-03-25T01:07:20.839Z,63.41
2019-03-25T01:07:52.043Z,63.51
2019-03-25T01:08:23.179Z,63.08
2019-03-25T01:08:55.379Z,62.52
2019-03-25T01:09:26.559Z,61.49
2019-03-25T01:09:57.759Z,60.47
2019-03-25T01:10:28.895Z,59.42
2019-03-25T01:11:00.095Z,58.06
2019-03-25T01:11:31.255Z,56.65
2019-03-25T01:12:02.551Z,55.75
2019-03-25T01:12:33.701Z,55.18
2019-03-25T01:13:04.896Z,55.01
2019-03-25T01:13:36.082Z,55.12
2019-03-25T01:14:07.278Z,55.35
2019-03-25T01:14:38.424Z,55.71
2019-03-25T01:15:09.611Z,56.05
2019-03-25T01:15:40.798Z,56.45
2019-03-25T01:16:12.022Z,56.88
2019-03-25T01:16:43.191Z,57.30
2019-03-25T01:17:14.380Z,57.81
2019-03-25T01:17:45.578Z,58.14
2019-03-25T01:18:17.470Z,58.44
2019-03-25T01:18:48.768Z,58.81
2019-03-25T01:19:19.944Z,59.16
2019-03-25T01:19:51.130Z,59.52
2019-03-25T01:20:22.413Z,59.95
2019-03-25T01:20:53.703Z,60.26
2019-03-25T01:21:24.870Z,60.63
2019-03-25T01:21:56.048Z,61.10
2019-03-25T01:22:27.314Z,61.74
2019-03-25T01:22:58.496Z,62.75
2019-03-25T01:23:29.667Z,63.19
2019-03-25T01:24:00.844Z,63.19
2019-03-25T01:24:32.010Z,62.69
2019-03-25T01:25:05.031Z,61.84
2019-03-25T01:25:36.206Z,61.01
2019-03-25T01:26:07.374Z,59.85
2019-03-25T01:26:38.572Z,58.98
2019-03-25T01:27:09.741Z,57.53
2019-03-25T01:27:40.931Z,56.00
2019-03-25T01:28:12.125Z,54.98
2019-03-25T01:28:43.342Z,54.60
2019-03-25T01:29:14.518Z,54.50
2019-03-25T01:29:45.687Z,54.66
2019-03-25T01:30:16.871Z,54.90
2019-03-25T01:30:48.047Z,55.22
2019-03-25T01:31:19.231Z,55.53
2019-03-25T01:31:50.404Z,55.94
2019-03-25T01:32:21.608Z,56.40
2019-03-25T01:32:52.804Z,56.96
2019-03-25T01:33:23.994Z,57.38
2019-03-25T01:33:55.232Z,57.76
2019-03-25T01:34:26.424Z,58.20
2019-03-25T01:34:57.618Z,58.71
2019-03-25T01:35:28.811Z,59.04
2019-03-25T01:36:00.003Z,59.18
2019-03-25T01:36:31.193Z,59.58
2019-03-25T01:37:02.354Z,60.05
2019-03-25T01:37:33.529Z,60.50
2019-03-25T01:38:04.704Z,60.96
2019-03-25T01:38:35.872Z,61.92
2019-03-25T01:39:07.074Z,62.67
2019-03-25T01:39:38.306Z,62.76
2019-03-25T01:40:09.531Z,62.44
2019-03-25T01:40:40.764Z,61.79
2019-03-25T01:41:11.999Z,60.89
2019-03-25T01:41:43.218Z,59.95
2019-03-25T01:42:14.456Z,58.97
2019-03-25T01:42:45.738Z,57.49
2019-03-25T01:43:16.965Z,56.17
2019-03-25T01:43:48.186Z,55.25
2019-03-25T01:44:19.396Z,54.93
2019-03-25T01:44:50.546Z,54.75
2019-03-25T01:45:21.745Z,54.81
2019-03-25T01:45:52.884Z,55.00
2019-03-25T01:46:24.187Z,55.30
2019-03-25T01:46:55.342Z,55.77
2019-03-25T01:47:26.616Z,56.15
2019-03-25T01:47:57.769Z,56.57
2019-03-25T01:48:28.981Z,56.94
2019-03-25T01:49:00.135Z,57.46
2019-03-25T01:49:31.364Z,57.79
2019-03-25T01:50:05.213Z,58.21
2019-03-25T01:50:36.409Z,58.57
2019-03-25T01:51:07.571Z,59.05
2019-03-25T01:51:38.767Z,59.52
2019-03-25T01:52:09.976Z,59.83
2019-03-25T01:52:41.173Z,60.12
2019-03-25T01:53:12.321Z,60.66
2019-03-25T01:53:44.519Z,61.66
2019-03-25T01:54:15.689Z,62.05
2019-03-25T01:54:46.919Z,61.35
2019-03-25T01:55:18.121Z,60.66
2019-03-25T01:55:49.342Z,60.14
2019-03-25T01:56:20.551Z,59.81
2019-03-25T01:56:51.767Z,59.79
2019-03-25T01:57:23.015Z,59.90
2019-03-25T01:57:54.436Z,60.15
2019-03-25T01:58:25.694Z,60.36
2019-03-25T01:58:56.906Z,61.08
2019-03-25T01:59:28.116Z,61.98
2019-03-25T01:59:59.275Z,62.18
2019-03-25T02:00:30.478Z,62.04
2019-03-25T02:01:01.625Z,61.79
2019-03-25T02:01:32.816Z,61.30
2019-03-25T02:02:03.964Z,60.53
2019-03-25T02:02:35.162Z,59.63
2019-03-25T02:03:07.316Z,58.32
2019-03-25T02:03:38.528Z,56.78
2019-03-25T02:04:09.671Z,55.74
2019-03-25T02:04:40.873Z,55.29
2019-03-25T02:05:12.018Z,55.09
2019-03-25T02:05:43.207Z,55.10
2019-03-25T02:06:14.417Z,55.31
2019-03-25T02:06:45.652Z,55.57
2019-03-25T02:07:16.856Z,55.95
2019-03-25T02:07:48.240Z,56.29
2019-03-25T02:08:19.388Z,56.73
2019-03-25T02:08:50.589Z,57.23
2019-03-25T02:09:21.860Z,57.57
2019-03-25T02:09:53.066Z,58.04
2019-03-25T02:10:24.331Z,58.44
2019-03-25T02:10:55.512Z,58.95
2019-03-25T02:11:26.747Z,59.35
2019-03-25T02:11:57.925Z,59.75
2019-03-25T02:12:29.101Z,60.09
2019-03-25T02:13:00.305Z,60.79
2019-03-25T02:13:31.473Z,61.77
2019-03-25T02:14:02.643Z,62.16
2019-03-25T02:14:33.849Z,62.03
2019-03-25T02:15:05.345Z,61.64
2019-03-25T02:15:36.533Z,60.95
2019-03-25T02:16:07.708Z,60.19
2019-03-25T02:16:38.889Z,59.34
2019-03-25T02:17:10.065Z,58.01
2019-03-25T02:17:41.250Z,56.61
2019-03-25T02:18:12.418Z,55.67
2019-03-25T02:18:43.604Z,55.21
2019-03-25T02:19:14.781Z,55.10
2019-03-25T02:19:46.038Z,55.10
2019-03-25T02:20:25.945Z,55.38
2019-03-25T02:20:50.336Z,55.73
2019-03-25T02:21:21.492Z,56.13
2019-03-25T02:21:52.751Z,56.62
2019-03-25T02:22:23.905Z,57.03
2019-03-25T02:22:56.398Z,57.53
2019-03-25T02:23:27.644Z,57.92
2019-03-25T02:23:58.848Z,58.41
2019-03-25T02:24:30.008Z,58.78
2019-03-25T02:25:01.507Z,59.13
2019-03-25T02:25:32.664Z,59.48
2019-03-25T02:26:03.856Z,59.90
2019-03-25T02:26:35.051Z,60.43
2019-03-25T02:27:06.312Z,61.43
2019-03-25T02:27:37.478Z,62.07
2019-03-25T02:28:08.680Z,61.68
2019-03-25T02:28:39.825Z,60.85
2019-03-25T02:29:11.015Z,60.31
2019-03-25T02:29:42.201Z,60.02
2019-03-25T02:30:13.402Z,59.91
2019-03-25T02:30:44.566Z,59.88
2019-03-25T02:31:16.759Z,60.10
2019-03-25T02:31:47.897Z,60.42
2019-03-25T02:32:19.103Z,61.18
2019-03-25T02:32:50.274Z,61.92
2019-03-25T02:33:21.467Z,62.23
2019-03-25T02:33:52.617Z,62.07
2019-03-25T02:34:23.833Z,61.62
2019-03-25T02:34:55.011Z,60.96
2019-03-25T02:35:26.195Z,60.12
2019-03-25T02:35:57.376Z,59.16
2019-03-25T02:36:28.543Z,57.70
2019-03-25T02:36:59.734Z,56.37
2019-03-25T02:37:30.910Z,55.47
2019-03-25T02:38:02.172Z,55.08
2019-03-25T02:38:33.369Z,54.87
2019-03-25T02:39:04.556Z,54.90
2019-03-25T02:39:36.489Z,55.08
2019-03-25T02:40:07.747Z,55.52
2019-03-25T02:40:38.947Z,55.95
2019-03-25T02:41:10.144Z,56.32
2019-03-25T02:41:41.323Z,56.69
2019-03-25T02:42:12.510Z,57.14
2019-03-25T02:42:43.671Z,57.53
2019-03-25T02:43:14.850Z,58.02
2019-03-25T02:43:46.165Z,58.43
2019-03-25T02:44:17.396Z,58.82
2019-03-25T02:44:48.628Z,59.17
2019-03-25T02:45:19.828Z,59.62
2019-03-25T02:45:50.973Z,60.07
2019-03-25T02:46:22.164Z,61.01
2019-03-25T02:46:53.341Z,61.61
2019-03-25T02:47:24.540Z,61.25
2019-03-25T02:47:55.736Z,60.48
2019-03-25T02:48:26.949Z,59.90
2019-03-25T02:48:58.098Z,59.57
2019-03-25T02:49:29.283Z,59.50
2019-03-25T02:50:00.660Z,59.63
2019-03-25T02:50:31.942Z,59.85
2019-03-25T02:51:03.117Z,60.09
2019-03-25T02:51:34.312Z,60.69
2019-03-25T02:52:05.492Z,61.62
2019-03-25T02:52:36.698Z,62.06
2019-03-25T02:53:07.871Z,61.40
2019-03-25T02:53:39.070Z,60.62
2019-03-25T02:54:10.215Z,60.20
2019-03-25T02:54:41.406Z,60.07
2019-03-25T02:55:12.626Z,60.20
2019-03-25T02:55:43.845Z,60.42
2019-03-25T02:56:15.121Z,60.73
2019-03-25T02:56:46.353Z,61.26
2019-03-25T02:57:17.565Z,62.22
2019-03-25T02:57:48.794Z,63.00
2019-03-25T02:58:20.018Z,63.15
2019-03-25T02:58:51.263Z,62.89
2019-03-25T02:59:22.476Z,62.26
2019-03-25T02:59:53.773Z,61.44
2019-03-25T03:00:37.414Z,60.61
2019-03-25T03:01:08.574Z,60.20
2019-03-25T03:01:39.856Z,58.79
2019-03-25T03:02:10.993Z,57.31
2019-03-25T03:02:42.202Z,55.89
2019-03-25T03:03:13.337Z,55.13
2019-03-25T03:03:44.537Z,54.84
2019-03-25T03:04:15.681Z,54.78
2019-03-25T03:04:46.882Z,54.88
2019-03-25T03:05:18.066Z,55.19
2019-03-25T03:05:49.260Z,55.38
2019-03-25T03:06:20.402Z,55.70
2019-03-25T03:06:51.605Z,55.96
2019-03-25T03:07:22.752Z,56.32
2019-03-25T03:07:53.956Z,56.64
2019-03-25T03:08:25.124Z,56.97
2019-03-25T03:08:56.330Z,57.28
2019-03-25T03:09:27.488Z,57.72
2019-03-25T03:09:58.675Z,58.02
2019-03-25T03:10:29.884Z,58.45
2019-03-25T03:11:01.054Z,58.82
2019-03-25T03:11:32.226Z,59.24
2019-03-25T03:12:03.505Z,59.75
2019-03-25T03:12:34.793Z,59.84
2019-03-25T03:13:05.962Z,60.10
2019-03-25T03:13:37.160Z,60.77
2019-03-25T03:14:08.347Z,61.92
2019-03-25T03:14:39.514Z,62.77
2019-03-25T03:15:10.679Z,63.07
2019-03-25T03:15:41.855Z,62.86
2019-03-25T03:16:13.030Z,62.25
2019-03-25T03:16:44.220Z,61.48
2019-03-25T03:17:15.401Z,60.62
2019-03-25T03:17:46.563Z,59.67
2019-03-25T03:18:17.738Z,58.36
2019-03-25T03:18:48.925Z,56.88
2019-03-25T03:19:20.119Z,55.93
2019-03-25T03:19:51.296Z,55.49
2019-03-25T03:20:22.473Z,55.29
2019-03-25T03:20:53.659Z,55.38
2019-03-25T03:21:24.828Z,55.62
2019-03-25T03:21:56.012Z,56.00
2019-03-25T03:22:27.305Z,56.49
2019-03-25T03:22:58.558Z,56.93
2019-03-25T03:23:29.933Z,57.41
2019-03-25T03:24:01.132Z,57.91
2019-03-25T03:24:33.284Z,58.30
2019-03-25T03:25:04.489Z,58.81
2019-03-25T03:25:35.680Z,59.24
2019-03-25T03:26:06.861Z,59.79
2019-03-25T03:26:39.107Z,60.24
2019-03-25T03:27:10.279Z,60.70
2019-03-25T03:27:41.477Z,61.06
2019-03-25T03:28:12.663Z,61.58
2019-03-25T03:28:43.853Z,62.37
2019-03-25T03:29:15.094Z,63.39
2019-03-25T03:29:46.280Z,63.97
2019-03-25T03:30:18.477Z,63.86
2019-03-25T03:30:49.667Z,63.32
2019-03-25T03:31:20.820Z,62.57
2019-03-25T03:31:52.110Z,61.65
2019-03-25T03:32:23.269Z,60.68
2019-03-25T03:32:54.468Z,59.68
2019-03-25T03:33:25.705Z,58.54
2019-03-25T03:33:56.894Z,57.10
2019-03-25T03:34:28.058Z,56.18
2019-03-25T03:34:59.247Z,55.67
2019-03-25T03:35:30.390Z,55.60
2019-03-25T03:36:01.599Z,55.70
2019-03-25T03:36:32.766Z,55.92
2019-03-25T03:37:04.018Z,56.31
2019-03-25T03:37:35.203Z,56.66
2019-03-25T03:38:06.439Z,57.09
2019-03-25T03:38:37.602Z,57.60
2019-03-25T03:39:08.788Z,58.12
2019-03-25T03:39:39.954Z,58.56
2019-03-25T03:40:11.142Z,59.04
2019-03-25T03:40:42.320Z,59.48
2019-03-25T03:41:13.536Z,59.99
2019-03-25T03:41:44.686Z,60.45
2019-03-25T03:42:15.871Z,60.90
2019-03-25T03:42:47.126Z,61.23
2019-03-25T03:43:18.351Z,61.82
2019-03-25T03:43:49.532Z,62.78
2019-03-25T03:44:20.812Z,63.58
2019-03-25T03:44:52.027Z,63.65
2019-03-25T03:45:23.246Z,63.25
2019-03-25T03:45:54.445Z,62.55
2019-03-25T03:46:25.617Z,61.72
2019-03-25T03:46:56.956Z,60.71
2019-03-25T03:47:28.181Z,59.82
2019-03-25T03:47:59.413Z,58.90
2019-03-25T03:48:30.695Z,57.62
2019-03-25T03:49:01.901Z,56.32
2019-03-25T03:49:33.142Z,55.63
2019-03-25T03:50:05.505Z,55.18
2019-03-25T03:50:36.760Z,55.24
2019-03-25T03:51:07.940Z,55.40
2019-03-25T03:51:39.106Z,55.73
2019-03-25T03:52:10.296Z,56.09
2019-03-25T03:52:41.474Z,56.62
2019-03-25T03:53:12.768Z,57.08
2019-03-25T03:53:43.927Z,57.60
2019-03-25T03:54:15.138Z,58.13
2019-03-25T03:54:46.395Z,58.64
2019-03-25T03:55:17.592Z,59.10
2019-03-25T03:55:48.854Z,59.62
2019-03-25T03:56:20.050Z,60.05
2019-03-25T03:56:52.204Z,60.52
2019-03-25T03:57:23.413Z,60.99
2019-03-25T03:57:54.884Z,61.72
2019-03-25T03:58:26.097Z,62.79
2019-03-25T03:58:57.331Z,63.44
2019-03-25T03:59:28.527Z,63.46
2019-03-25T04:00:00.421Z,63.08
2019-03-25T04:00:32.779Z,62.48
2019-03-25T04:01:04.948Z,61.59
2019-03-25T04:01:36.167Z,60.70
2019-03-25T04:02:07.340Z,59.72
2019-03-25T04:02:38.527Z,58.49
2019-03-25T04:03:09.709Z,57.12
2019-03-25T04:03:40.977Z,56.17
2019-03-25T04:04:12.127Z,55.75
2019-03-25T04:04:43.347Z,55.62
2019-03-25T04:05:14.498Z,55.75
2019-03-25T04:05:45.688Z,55.96
2019-03-25T04:06:16.881Z,56.31
2019-03-25T04:06:48.103Z,56.77
2019-03-25T04:07:19.256Z,57.25
2019-03-25T04:07:50.449Z,57.70
2019-03-25T04:08:21.594Z,58.16
2019-03-25T04:08:52.790Z,58.73
2019-03-25T04:09:23.953Z,59.15
2019-03-25T04:09:55.145Z,59.66
2019-03-25T04:10:26.291Z,60.11
2019-03-25T04:10:57.468Z,60.59
2019-03-25T04:11:28.640Z,61.09
2019-03-25T04:11:59.784Z,61.81
2019-03-25T04:12:30.963Z,62.71
2019-03-25T04:13:02.209Z,63.18
2019-03-25T04:13:33.361Z,63.08
2019-03-25T04:14:04.614Z,62.73
2019-03-25T04:14:36.911Z,62.07
2019-03-25T04:15:12.042Z,61.00
2019-03-25T04:15:44.204Z,60.31
2019-03-25T04:16:15.394Z,59.12
2019-03-25T04:16:46.554Z,57.92
2019-03-25T04:17:17.697Z,56.61
2019-03-25T04:17:48.898Z,55.64
2019-03-25T04:18:20.061Z,55.06
2019-03-25T04:18:51.258Z,55.00
2019-03-25T04:19:22.442Z,55.02
2019-03-25T04:19:53.759Z,55.35
2019-03-25T04:20:24.915Z,55.84
2019-03-25T04:20:56.094Z,56.23
2019-03-25T04:21:28.311Z,56.60
2019-03-25T04:21:59.611Z,57.18
2019-03-25T04:22:30.765Z,57.63
2019-03-25T04:23:01.986Z,58.06
2019-03-25T04:23:33.129Z,58.55
2019-03-25T04:24:04.338Z,58.91
2019-03-25T04:24:35.509Z,59.50
2019-03-25T04:25:06.729Z,60.00
2019-03-25T04:25:37.980Z,60.45
2019-03-25T04:26:09.172Z,60.82
2019-03-25T04:26:40.373Z,61.54
2019-03-25T04:27:12.630Z,62.56
2019-03-25T04:27:43.824Z,63.11
2019-03-25T04:28:15.005Z,63.05
2019-03-25T04:28:46.195Z,62.65
2019-03-25T04:29:17.408Z,61.83
2019-03-25T04:29:48.571Z,61.00
2019-03-25T04:30:19.734Z,60.00
2019-03-25T04:30:50.928Z,59.00
2019-03-25T04:31:22.101Z,57.67
2019-03-25T04:31:53.278Z,56.34
2019-03-25T04:32:24.440Z,55.54
2019-03-25T04:32:55.740Z,55.17
2019-03-25T04:33:26.912Z,55.13
2019-03-25T04:33:58.076Z,55.29
2019-03-25T04:34:29.260Z,55.60
2019-03-25T04:35:00.520Z,56.05
2019-03-25T04:35:31.709Z,56.38
2019-03-25T04:36:03.008Z,56.79
2019-03-25T04:36:34.183Z,57.31
2019-03-25T04:37:05.359Z,57.71
2019-03-25T04:37:36.533Z,58.13
2019-03-25T04:38:07.816Z,58.53
2019-03-25T04:38:39.015Z,58.93
2019-03-25T04:39:10.178Z,59.40
2019-03-25T04:39:41.356Z,59.79
2019-03-25T04:40:12.631Z,60.19
2019-03-25T04:40:43.814Z,60.65
2019-03-25T04:41:15.002Z,61.15
2019-03-25T04:41:46.281Z,62.16
2019-03-25T04:42:17.447Z,62.80
2019-03-25T04:42:48.663Z,62.94
2019-03-25T04:43:19.882Z,62.48
2019-03-25T04:43:51.032Z,61.79
2019-03-25T04:44:22.257Z,61.02
2019-03-25T04:44:53.593Z,60.06
2019-03-25T04:45:24.859Z,59.20
2019-03-25T04:45:56.111Z,57.92
2019-03-25T04:46:27.325Z,56.36
2019-03-25T04:46:58.527Z,55.47
2019-03-25T04:47:29.676Z,55.02
2019-03-25T04:48:00.885Z,54.91
2019-03-25T04:48:32.041Z,54.86
2019-03-25T04:49:03.263Z,55.05
2019-03-25T04:49:34.411Z,55.41
2019-03-25T04:50:05.644Z,55.82
2019-03-25T04:50:36.856Z,56.28
2019-03-25T04:51:08.063Z,56.61
2019-03-25T04:51:39.211Z,57.01
2019-03-25T04:52:10.411Z,57.46
2019-03-25T04:52:41.556Z,57.89
2019-03-25T04:53:12.760Z,58.23
2019-03-25T04:53:43.909Z,58.55
2019-03-25T04:54:15.217Z,58.97
2019-03-25T04:54:46.384Z,59.35
2019-03-25T04:55:17.600Z,59.72
2019-03-25T04:55:48.760Z,60.07
2019-03-25T04:56:20.068Z,60.30
2019-03-25T04:56:51.218Z,60.63
2019-03-25T04:57:22.492Z,61.45
2019-03-25T04:57:53.738Z,62.31
2019-03-25T04:58:24.927Z,62.63
2019-03-25T04:58:56.110Z,62.53
2019-03-25T04:59:27.318Z,62.04
2019-03-25T04:59:58.507Z,61.31
2019-03-25T05:00:33.200Z,60.43
2019-03-25T05:01:04.367Z,59.54
2019-03-25T05:01:35.571Z,58.03
2019-03-25T05:02:06.753Z,56.51
2019-03-25T05:02:37.961Z,55.61
2019-03-25T05:03:09.127Z,55.05
2019-03-25T05:03:40.330Z,54.95
2019-03-25T05:04:11.495Z,54.96
2019-03-25T05:04:42.697Z,55.21
2019-03-25T05:05:13.841Z,55.64
2019-03-25T05:05:45.041Z,56.01
2019-03-25T05:06:16.202Z,56.47
2019-03-25T05:06:47.401Z,56.90
2019-03-25T05:07:18.578Z,57.27
2019-03-25T05:07:49.811Z,57.72
2019-03-25T05:08:21.037Z,58.11
2019-03-25T05:08:52.247Z,58.60
2019-03-25T05:09:23.590Z,59.03
2019-03-25T05:09:54.823Z,59.42
2019-03-25T05:10:26.073Z,59.80
2019-03-25T05:10:57.268Z,60.23
2019-03-25T05:11:30.766Z,60.70
2019-03-25T05:12:01.648Z,61.57
2019-03-25T05:12:32.811Z,62.50
2019-03-25T05:13:03.968Z,62.57
2019-03-25T05:13:35.169Z,62.35
2019-03-25T05:14:06.330Z,61.93
2019-03-25T05:14:37.540Z,61.15
2019-03-25T05:15:08.685Z,60.15
2019-03-25T05:15:39.890Z,59.30
2019-03-25T05:16:11.089Z,58.00
2019-03-25T05:16:42.290Z,56.70
2019-03-25T05:17:13.468Z,55.77
2019-03-25T05:17:44.664Z,55.30
2019-03-25T05:18:15.825Z,55.10
2019-03-25T05:18:47.021Z,55.14
2019-03-25T05:19:18.184Z,55.48
2019-03-25T05:19:50.417Z,55.89
2019-03-25T05:20:21.583Z,56.33
2019-03-25T05:20:52.771Z,56.66
2019-03-25T05:21:23.932Z,57.24
2019-03-25T05:21:55.137Z,57.66
2019-03-25T05:22:26.305Z,58.02
2019-03-25T05:22:57.481Z,58.47
2019-03-25T05:23:28.730Z,58.85
2019-03-25T05:23:59.905Z,59.31
2019-03-25T05:24:31.076Z,59.78
2019-03-25T05:25:04.149Z,60.23
2019-03-25T05:25:35.315Z,60.56
2019-03-25T05:26:06.492Z,61.28
2019-03-25T05:26:37.659Z,62.24
2019-03-25T05:27:08.841Z,62.81
2019-03-25T05:27:39.999Z,62.91
2019-03-25T05:28:11.187Z,62.53
2019-03-25T05:28:42.382Z,61.73
2019-03-25T05:29:13.526Z,60.79
2019-03-25T05:29:44.729Z,59.83
2019-03-25T05:30:15.883Z,58.95
2019-03-25T05:30:47.071Z,57.52
2019-03-25T05:31:18.265Z,56.03
2019-03-25T05:31:49.455Z,55.30
2019-03-25T05:32:20.601Z,54.94
2019-03-25T05:32:51.785Z,54.80
2019-03-25T05:33:22.947Z,54.88
2019-03-25T05:33:54.326Z,55.01
2019-03-25T05:34:25.489Z,55.62
2019-03-25T05:34:56.713Z,56.31
2019-03-25T05:35:27.850Z,56.86
2019-03-25T05:35:59.047Z,57.00
2019-03-25T05:36:30.208Z,57.59
2019-03-25T05:37:01.415Z,58.23
2019-03-25T05:37:32.588Z,58.64
2019-03-25T05:38:03.790Z,59.47
2019-03-25T05:38:34.944Z,59.71
2019-03-25T05:39:07.632Z,60.16
2019-03-25T05:39:39.784Z,60.43
2019-03-25T05:40:10.984Z,60.80
2019-03-25T05:40:42.147Z,61.24
2019-03-25T05:41:13.330Z,61.99
2019-03-25T05:41:44.500Z,62.32
2019-03-25T05:42:15.758Z,62.74
2019-03-25T05:42:46.974Z,63.10
2019-03-25T05:43:18.152Z,63.37
2019-03-25T05:43:50.318Z,63.21
2019-03-25T05:44:21.562Z,63.05
2019-03-25T05:44:52.792Z,62.25
2019-03-25T05:45:24.165Z,61.06
2019-03-25T05:45:55.383Z,59.90
2019-03-25T05:46:26.714Z,59.07
2019-03-25T05:46:57.955Z,57.96
2019-03-25T05:47:29.188Z,56.87
2019-03-25T05:48:00.382Z,55.85
2019-03-25T05:48:31.532Z,55.03
2019-03-25T05:49:02.737Z,54.98
2019-03-25T05:49:33.879Z,55.31
2019-03-25T05:50:05.563Z,55.58
2019-03-25T05:50:36.817Z,55.98
2019-03-25T05:51:08.047Z,56.52
2019-03-25T05:51:39.199Z,56.95
2019-03-25T05:52:10.389Z,57.20
2019-03-25T05:52:41.628Z,57.33
2019-03-25T05:53:12.827Z,57.47
2019-03-25T05:53:43.978Z,57.76
2019-03-25T05:54:15.201Z,58.20
2019-03-25T05:54:46.351Z,58.45
2019-03-25T05:55:17.611Z,58.74
2019-03-25T05:55:48.813Z,59.39
2019-03-25T05:56:21.001Z,59.48
2019-03-25T05:57:02.066Z,59.61
2019-03-25T05:57:25.256Z,59.96
2019-03-25T05:57:56.544Z,60.48
2019-03-25T05:58:27.764Z,61.07
2019-03-25T05:58:59.002Z,61.63
2019-03-25T05:59:31.222Z,62.03
2019-03-25T06:00:02.549Z,62.74
2019-03-25T06:00:35.877Z,63.47
2019-03-25T06:01:07.206Z,63.95
2019-03-25T06:01:38.430Z,63.54
2019-03-25T06:02:09.714Z,62.94
2019-03-25T06:02:40.939Z,62.10
2019-03-25T06:03:12.146Z,60.90
2019-03-25T06:03:43.297Z,59.61
2019-03-25T06:04:14.502Z,58.21
2019-03-25T06:04:45.710Z,56.61
2019-03-25T06:05:16.916Z,55.62
2019-03-25T06:05:48.057Z,55.14
2019-03-25T06:06:19.262Z,55.12
2019-03-25T06:06:52.164Z,55.25
2019-03-25T06:07:23.589Z,55.34
2019-03-25T06:07:54.796Z,55.99
2019-03-25T06:08:25.993Z,56.22
2019-03-25T06:08:57.163Z,56.49
2019-03-25T06:09:28.390Z,57.03
2019-03-25T06:09:59.569Z,57.25
2019-03-25T06:10:30.787Z,57.92
2019-03-25T06:11:01.929Z,58.25
2019-03-25T06:11:33.225Z,58.66
2019-03-25T06:12:04.397Z,59.18
2019-03-25T06:12:35.554Z,59.52
2019-03-25T06:13:06.753Z,59.85
2019-03-25T06:13:37.943Z,60.05
2019-03-25T06:14:09.105Z,60.54
2019-03-25T06:14:40.337Z,60.95
2019-03-25T06:15:11.537Z,61.19
2019-03-25T06:15:42.747Z,61.40
2019-03-25T06:16:13.901Z,61.80
2019-03-25T06:16:45.107Z,62.07
2019-03-25T06:17:16.273Z,62.52
2019-03-25T06:17:47.491Z,63.03
2019-03-25T06:18:20.409Z,63.99
2019-03-25T06:18:51.763Z,64.68
2019-03-25T06:19:22.914Z,64.58
2019-03-25T06:19:54.112Z,64.08
2019-03-25T06:20:25.275Z,63.35
2019-03-25T06:20:56.566Z,62.15
2019-03-25T06:21:27.711Z,61.07
2019-03-25T06:21:58.924Z,60.02
2019-03-25T06:22:30.080Z,58.83
2019-03-25T06:23:01.275Z,57.46
2019-03-25T06:23:32.458Z,56.25
2019-03-25T06:24:03.737Z,55.44
2019-03-25T06:24:34.922Z,54.97
2019-03-25T06:25:06.099Z,55.01
2019-03-25T06:25:37.254Z,55.01
2019-03-25T06:26:08.437Z,55.28
2019-03-25T06:26:39.605Z,55.52
2019-03-25T06:27:14.432Z,55.95
2019-03-25T06:27:43.858Z,56.43
2019-03-25T06:28:15.043Z,56.79
2019-03-25T06:28:47.257Z,57.33
2019-03-25T06:29:18.425Z,57.88
2019-03-25T06:29:49.602Z,58.44
2019-03-25T06:30:20.882Z,58.88
2019-03-25T06:30:52.059Z,59.51
2019-03-25T06:31:23.230Z,59.82
2019-03-25T06:31:54.454Z,60.32
2019-03-25T06:32:25.643Z,60.74
2019-03-25T06:32:56.821Z,61.23
2019-03-25T06:33:28.020Z,61.52
2019-03-25T06:33:59.192Z,62.05
2019-03-25T06:34:30.371Z,62.46
2019-03-25T06:35:01.770Z,63.18
2019-03-25T06:35:33.041Z,64.18
2019-03-25T06:36:04.289Z,64.90
2019-03-25T06:36:35.456Z,64.97
2019-03-25T06:37:06.653Z,64.44
2019-03-25T06:37:37.923Z,63.66
2019-03-25T06:38:09.107Z,62.83
2019-03-25T06:38:40.295Z,61.93
2019-03-25T06:39:11.432Z,60.98
2019-03-25T06:39:42.632Z,59.96
2019-03-25T06:40:13.795Z,58.92
2019-03-25T06:40:44.999Z,57.68
2019-03-25T06:41:16.159Z,56.47
2019-03-25T06:41:47.326Z,55.59
2019-03-25T06:42:18.492Z,55.32
2019-03-25T06:42:49.726Z,55.34
2019-03-25T06:43:20.951Z,55.54